Lorraine, NY (13659)

7:01 AM EDT on April 19, 2015 (GMT -0400)
Tug Hill | | Change Station
CLOSE
Current Station
Personal Weather Station
Location: Copenhagen, NY
Elevation: 1539 ft
Nearby Weather Stations

Elev 1539 ft 43.85 °N, 75.75 °W | Updated 21 seconds ago

Clear
Clear
31.3 °F
Feels Like 26 °F
N
5.8
Wind Variable Wind from East

Today
High -- | Low -- °F
--% Chance of Precip.
Yesterday
High -- | Low -- °F
Precip. -- in
6:14 AM 7:51 PM
New Moon, 1% visible
Pressure 30.28 in
Visibility 10.0 miles
Clouds Clear
Windchill 26 °F
Dew Point 26 °F
Humidity 80%
Rainfall 0.00 in
Snow Depth Not available.
UV 0 out of 12
Pollen 9.90 out of 12
Air Quality Not available.
Flu Activity Widespread
METAR KART 191056Z AUTO 05007KT 10SM CLR 01/M03 A3027 RMK AO2 SLP253 T00111028

More Conditions Fewer Conditions

Pressure 30.28 in
Visibility 10.0 miles
Clouds Clear
Windchill 26 °F
Dew Point 26 °F
Humidity 80%
Rainfall 0.00 in
Snow Depth Not available.
UV 0 out of 12
Pollen 9.90 out of 12
Air Quality Not available.
Flu Activity Widespread
METAR KART 191056Z AUTO 05007KT 10SM CLR 01/M03 A3027 RMK AO2 SLP253 T00111028

More Conditions Fewer Conditions

10-Day Weather Forecast

Almanac

Astronomy

Apr. 19, 2015 Rise Set
Actual Time
Civil Twilight
Nautical Twilight
Astronomical Twilight
Moon
Length of Visible Light
Length of Day
Tomorrow will be .
, % of the Moon is Illuminated

Today's Extremes

State Highs State Lows

Community

WunderPhotos

Upload Photos

1,814,756 photos uploaded!

WunderBlogs® & News

Nearby

Air Quality

  Air Quality AQ Index Pollutant
Not available.

Snow Depth

Station Depth Elevation

Earthquake Activity

City Distance Mag. Time & Date
Minimum magnitude displayed is 2.5.

Coastal Water Temperatures

Place Temperature

Stations

Nearby Weather Stations

Station Location Temp. Windchill Dew Point Humidity Wind Precip. Elev Updated Type